createdAt,value
2023-02-03T00:00:08.603Z,34.30
2023-02-03T00:02:39.633Z,37.53
2023-02-03T00:05:08.549Z,35.17
2023-02-03T00:07:39.195Z,37.33
2023-02-03T00:10:08.322Z,35.28
2023-02-03T00:12:36.621Z,38.53
2023-02-03T00:15:05.273Z,37.38
2023-02-03T00:17:33.382Z,38.92
2023-02-03T00:20:01.566Z,38.00
2023-02-03T00:22:29.742Z,40.95
2023-02-03T00:24:57.846Z,39.53
2023-02-03T00:27:26.155Z,39.38
2023-02-03T00:29:54.229Z,41.90
2023-02-03T00:32:22.528Z,40.35
2023-02-03T00:34:50.767Z,42.08
2023-02-03T00:37:18.901Z,45.97
2023-02-03T00:39:47.363Z,42.15
2023-02-03T00:42:15.756Z,41.88
2023-02-03T00:44:45.285Z,42.55
2023-02-03T00:47:13.398Z,44.33
2023-02-03T00:49:42.102Z,42.55
2023-02-03T00:52:10.250Z,47.92
2023-02-03T00:54:39.677Z,46.85
2023-02-03T00:57:07.828Z,50.58
2023-02-03T00:59:36.071Z,52.80
2023-02-03T01:02:04.304Z,53.60
2023-02-03T01:04:32.426Z,53.30
2023-02-03T01:07:03.237Z,52.70
2023-02-03T01:09:34.996Z,54.88
2023-02-03T01:12:03.641Z,58.20
2023-02-03T01:14:32.075Z,57.55
2023-02-03T01:17:01.280Z,59.78
2023-02-03T01:19:29.438Z,59.67
2023-02-03T01:21:57.592Z,60.78
2023-02-03T01:24:25.729Z,60.78
2023-02-03T01:26:53.936Z,59.03
2023-02-03T01:29:22.243Z,61.13
2023-02-03T01:31:51.405Z,59.10
2023-02-03T01:34:19.819Z,57.70
2023-02-03T01:36:48.851Z,56.88
2023-02-03T01:39:17.284Z,57.30
2023-02-03T01:41:47.127Z,56.42
2023-02-03T01:44:34.971Z,55.63
2023-02-03T01:47:06.032Z,59.42
2023-02-03T01:49:38.973Z,60.47
2023-02-03T01:52:08.679Z,58.42
2023-02-03T01:54:42.420Z,59.38
2023-02-03T01:57:36.943Z,54.13
2023-02-03T02:00:09.910Z,57.55
2023-02-03T02:02:47.987Z,57.15
2023-02-03T02:05:46.333Z,61.25
2023-02-03T02:08:16.938Z,65.05
2023-02-03T02:10:46.097Z,62.45
2023-02-03T02:13:17.156Z,62.17
2023-02-03T02:16:12.033Z,61.95
2023-02-03T02:18:47.661Z,63.30
2023-02-03T02:21:27.940Z,66.10
2023-02-03T02:24:33.663Z,67.45
2023-02-03T02:27:40.656Z,65.25
2023-02-03T02:30:29.952Z,67.45
2023-02-03T02:33:53.689Z,66.35
2023-02-03T02:36:43.127Z,61.50
2023-02-03T02:39:27.222Z,64.57
2023-02-03T02:42:26.871Z,67.38
2023-02-03T02:45:15.513Z,67.30
2023-02-03T02:47:45.142Z,67.63
2023-02-03T02:50:34.467Z,70.00
2023-02-03T02:53:05.448Z,70.20
2023-02-03T02:55:37.361Z,69.70
2023-02-03T02:58:13.106Z,69.75
2023-02-03T03:00:42.963Z,69.82
2023-02-03T03:03:20.982Z,65.20
2023-02-03T03:06:07.053Z,66.47
2023-02-03T03:08:50.592Z,65.30
2023-02-03T03:11:19.303Z,68.63
2023-02-03T03:13:55.288Z,66.65
2023-02-03T03:16:29.727Z,70.68
2023-02-03T03:19:03.051Z,67.75
2023-02-03T03:21:40.609Z,73.13
2023-02-03T03:24:14.315Z,76.10
2023-02-03T03:26:46.365Z,75.43
2023-02-03T03:29:26.369Z,81.75
2023-02-03T03:31:54.600Z,83.13
2023-02-03T03:34:22.801Z,84.85
2023-02-03T03:37:11.537Z,83.65
2023-02-03T03:39:49.117Z,81.28
2023-02-03T03:42:36.341Z,81.63
2023-02-03T03:45:12.599Z,78.15
2023-02-03T03:47:58.788Z,78.53
2023-02-03T03:50:32.433Z,78.43
2023-02-03T03:53:03.131Z,80.25
2023-02-03T03:55:37.028Z,83.20
2023-02-03T03:58:16.195Z,84.80
2023-02-03T04:00:46.150Z,85.65
2023-02-03T04:03:28.732Z,84.25
2023-02-03T04:05:56.880Z,83.50
2023-02-03T04:08:25.014Z,82.30
2023-02-03T04:10:53.178Z,79.38
2023-02-03T04:13:21.339Z,85.53
2023-02-03T04:15:49.633Z,85.47
2023-02-03T04:18:18.080Z,84.50
2023-02-03T04:20:46.210Z,79.10
2023-02-03T04:23:14.383Z,82.93
2023-02-03T04:25:45.398Z,82.13
2023-02-03T04:28:13.636Z,82.32
2023-02-03T04:30:41.838Z,82.97
2023-02-03T04:33:09.943Z,81.28
2023-02-03T04:35:38.082Z,79.70
2023-02-03T04:38:06.249Z,74.22
2023-02-03T04:40:35.161Z,71.57
2023-02-03T04:43:07.732Z,72.75
2023-02-03T04:45:35.962Z,77.55
2023-02-03T04:48:07.424Z,77.95
2023-02-03T04:50:35.529Z,83.15
2023-02-03T04:53:03.643Z,87.13
2023-02-03T04:55:31.771Z,92.65
2023-02-03T04:58:01.277Z,89.30
2023-02-03T05:00:30.072Z,90.28
2023-02-03T05:02:58.613Z,95.13
2023-02-03T05:05:26.877Z,92.85
2023-02-03T05:07:54.966Z,96.13
2023-02-03T05:10:23.102Z,95.85
2023-02-03T05:12:51.213Z,91.57
2023-02-03T05:15:21.945Z,93.38
2023-02-03T05:17:53.383Z,91.38
2023-02-03T05:20:21.995Z,89.22
2023-02-03T05:22:50.525Z,84.40
2023-02-03T05:25:18.691Z,84.88
2023-02-03T05:27:46.903Z,82.43
2023-02-03T05:30:15.136Z,87.47
2023-02-03T05:32:43.269Z,83.18
2023-02-03T05:35:11.351Z,79.60
2023-02-03T05:37:39.485Z,72.40
2023-02-03T05:40:27.268Z,77.00
2023-02-03T05:42:55.573Z,72.15
2023-02-03T05:45:23.888Z,77.43
2023-02-03T05:47:54.434Z,73.88
2023-02-03T05:50:22.927Z,77.10
2023-02-03T05:52:51.910Z,76.95
2023-02-03T05:55:20.109Z,79.03
2023-02-03T05:57:48.305Z,75.65
2023-02-03T06:00:16.833Z,71.50
2023-02-03T06:02:44.991Z,76.05
2023-02-03T06:05:13.533Z,76.22
2023-02-03T06:07:41.633Z,81.65
2023-02-03T06:10:12.532Z,81.82
2023-02-03T06:12:40.723Z,84.57
2023-02-03T06:15:09.430Z,77.90
2023-02-03T06:17:37.767Z,78.68
2023-02-03T06:20:08.545Z,80.78
2023-02-03T06:22:36.735Z,81.85
2023-02-03T06:25:05.619Z,74.28
2023-02-03T06:27:33.937Z,81.00
2023-02-03T06:30:02.073Z,80.75
2023-02-03T06:32:33.093Z,80.05
2023-02-03T06:35:01.272Z,79.15
2023-02-03T06:37:29.456Z,78.85
2023-02-03T06:39:57.553Z,78.07
2023-02-03T06:42:25.705Z,75.20
2023-02-03T06:44:55.083Z,78.90
2023-02-03T06:47:23.217Z,80.65
2023-02-03T06:49:52.350Z,78.13
2023-02-03T06:52:20.553Z,81.97
2023-02-03T06:54:48.684Z,79.85
2023-02-03T06:57:16.903Z,83.32
2023-02-03T06:59:45.014Z,79.20
2023-02-03T07:02:13.328Z,81.70
2023-02-03T07:04:43.651Z,85.43
2023-02-03T07:07:12.978Z,87.32
2023-02-03T07:09:44.541Z,86.82
2023-02-03T07:12:12.965Z,85.65
2023-02-03T07:14:42.368Z,87.65
2023-02-03T07:17:10.525Z,84.57
2023-02-03T07:19:38.621Z,94.45
2023-02-03T07:22:07.575Z,89.95
2023-02-03T07:24:36.233Z,84.15
2023-02-03T07:27:04.733Z,89.10
2023-02-03T07:29:32.903Z,91.88
2023-02-03T07:32:02.800Z,87.32
2023-02-03T07:34:31.102Z,89.35
2023-02-03T07:36:59.306Z,82.88
2023-02-03T07:39:27.526Z,88.10
2023-02-03T07:41:55.756Z,84.70
2023-02-03T07:44:25.087Z,84.72
2023-02-03T07:46:53.300Z,83.32
2023-02-03T07:49:21.450Z,84.25
2023-02-03T07:51:49.636Z,81.10
2023-02-03T07:54:17.818Z,88.18
2023-02-03T07:56:46.018Z,83.93
2023-02-03T07:59:14.156Z,85.28
2023-02-03T08:01:42.312Z,84.63
2023-02-03T08:04:12.936Z,84.15
2023-02-03T08:06:41.142Z,86.28
2023-02-03T08:09:09.571Z,83.75
2023-02-03T08:11:37.774Z,80.30
2023-02-03T08:14:06.008Z,81.15
2023-02-03T08:16:34.291Z,84.10
2023-02-03T08:19:02.516Z,84.05
2023-02-03T08:21:31.040Z,85.65
2023-02-03T08:23:59.091Z,85.10
2023-02-03T08:26:27.272Z,82.97
2023-02-03T08:28:55.529Z,83.72
2023-02-03T08:31:24.785Z,85.30
2023-02-03T08:33:53.016Z,85.00
2023-02-03T08:36:21.200Z,82.78
2023-02-03T08:38:52.462Z,82.85
2023-02-03T08:41:20.859Z,85.00
2023-02-03T08:43:49.445Z,89.60
2023-02-03T08:46:17.654Z,83.20
2023-02-03T08:48:45.891Z,85.45
2023-02-03T08:51:17.014Z,85.75
2023-02-03T08:53:45.461Z,90.88
2023-02-03T08:56:14.236Z,87.75
2023-02-03T08:58:42.477Z,92.60
2023-02-03T09:01:13.036Z,92.68
2023-02-03T09:03:42.132Z,90.60
2023-02-03T09:06:16.716Z,88.15
2023-02-03T09:08:46.302Z,90.13
2023-02-03T09:11:17.160Z,91.63
2023-02-03T09:13:46.134Z,88.95
2023-02-03T09:16:17.382Z,91.10
2023-02-03T09:18:46.496Z,92.25
2023-02-03T09:21:34.734Z,85.70
2023-02-03T09:26:37.171Z,88.47
2023-02-03T09:29:05.342Z,89.50
2023-02-03T09:31:33.729Z,85.10
2023-02-03T09:34:01.889Z,82.63
2023-02-03T09:36:30.131Z,83.40
2023-02-03T09:38:58.609Z,84.38
2023-02-03T09:41:42.697Z,85.68
2023-02-03T09:44:34.988Z,88.78
2023-02-03T09:47:28.803Z,90.85
2023-02-03T09:52:39.392Z,84.60
2023-02-03T09:55:20.846Z,86.15
2023-02-03T09:58:03.167Z,84.95
2023-02-03T10:00:39.968Z,87.68
2023-02-03T10:03:28.497Z,86.68
2023-02-03T10:06:19.144Z,87.03
2023-02-03T10:09:24.575Z,92.43
2023-02-03T10:12:18.275Z,88.03
2023-02-03T10:15:15.564Z,89.35
2023-02-03T10:18:04.784Z,93.05
2023-02-03T10:20:39.725Z,87.55
2023-02-03T10:23:13.652Z,90.35
2023-02-03T10:25:57.180Z,90.72
2023-02-03T10:28:30.979Z,90.85
2023-02-03T10:33:31.123Z,85.93
2023-02-03T10:36:20.912Z,90.70
2023-02-03T10:39:07.935Z,89.95
2023-02-03T10:41:36.468Z,93.47
2023-02-03T10:44:10.779Z,92.47
2023-02-03T10:46:42.342Z,92.40
2023-02-03T10:49:15.501Z,94.90
2023-02-03T10:51:57.049Z,91.97
2023-02-03T10:54:34.533Z,95.80
2023-02-03T10:57:12.357Z,94.68
2023-02-03T10:59:46.387Z,91.70
2023-02-03T11:02:25.928Z,96.10
2023-02-03T11:05:24.934Z,98.97
2023-02-03T11:07:56.278Z,95.40
2023-02-03T11:10:29.254Z,100.13
2023-02-03T11:15:55.715Z,93.43
2023-02-03T11:18:38.666Z,97.20
2023-02-03T11:21:21.151Z,100.88
2023-02-03T11:24:17.076Z,92.30
2023-02-03T11:27:07.019Z,90.22
2023-02-03T11:29:44.365Z,95.18
2023-02-03T11:32:33.412Z,91.72
2023-02-03T11:35:15.385Z,87.90
2023-02-03T11:37:46.401Z,87.95
2023-02-03T11:40:20.158Z,87.43
2023-02-03T11:42:53.005Z,87.72
2023-02-03T11:45:29.714Z,86.80
2023-02-03T11:48:06.384Z,86.57
2023-02-03T11:50:43.769Z,89.53
2023-02-03T11:53:11.981Z,90.50
2023-02-03T11:56:11.802Z,90.35
2023-02-03T11:58:58.751Z,94.93
2023-02-03T12:01:51.256Z,92.97
2023-02-03T12:04:43.853Z,91.10
2023-02-03T12:07:36.375Z,90.13
2023-02-03T12:10:28.935Z,85.38
2023-02-03T12:13:26.244Z,88.78
2023-02-03T12:16:21.815Z,87.47
2023-02-03T12:19:07.717Z,89.63
2023-02-03T12:21:49.991Z,89.07
2023-02-03T12:24:25.010Z,88.47
2023-02-03T12:27:04.863Z,89.63
2023-02-03T12:29:45.653Z,88.50
2023-02-03T12:32:36.856Z,90.85
2023-02-03T12:35:15.895Z,90.47
2023-02-03T12:38:17.085Z,89.43
2023-02-03T12:40:54.302Z,91.13
2023-02-03T12:43:39.922Z,90.63
2023-02-03T12:46:16.268Z,88.72
2023-02-03T12:49:12.509Z,90.95
2023-02-03T12:51:57.366Z,93.10
2023-02-03T12:54:46.834Z,92.30
2023-02-03T12:57:25.427Z,89.10
2023-02-03T13:00:10.709Z,94.10
2023-02-03T13:03:01.133Z,89.68
2023-02-03T13:05:43.926Z,90.05
2023-02-03T13:08:19.338Z,90.63
2023-02-03T13:10:55.118Z,90.88
2023-02-03T13:13:36.739Z,92.07
2023-02-03T13:16:09.861Z,94.35
2023-02-03T13:18:42.595Z,91.53
2023-02-03T13:21:13.891Z,90.38
2023-02-03T13:23:45.504Z,89.78
2023-02-03T13:26:32.252Z,88.82
2023-02-03T13:29:29.108Z,87.10
2023-02-03T13:32:06.321Z,91.30
2023-02-03T13:35:24.836Z,91.32
2023-02-03T13:38:13.318Z,84.15
2023-02-03T13:41:18.271Z,85.43
2023-02-03T13:43:49.991Z,85.90
2023-02-03T13:46:32.219Z,83.75
2023-02-03T13:49:03.157Z,87.43
2023-02-03T13:51:39.388Z,83.68
2023-02-03T13:54:16.508Z,84.35
2023-02-03T13:57:05.159Z,87.35
2023-02-03T13:59:43.022Z,85.78
2023-02-03T14:02:27.266Z,84.28
2023-02-03T14:04:58.163Z,85.85
2023-02-03T14:07:34.635Z,83.00
2023-02-03T14:10:16.627Z,88.13
2023-02-03T14:12:51.228Z,86.63
2023-02-03T14:15:21.814Z,86.68
2023-02-03T14:17:53.097Z,89.13
2023-02-03T14:20:27.575Z,88.53
2023-02-03T14:22:55.763Z,85.93
2023-02-03T14:25:27.067Z,84.43
2023-02-03T14:28:05.705Z,87.13
2023-02-03T14:30:54.302Z,87.20
2023-02-03T14:33:42.489Z,84.50
2023-02-03T14:36:28.082Z,89.50
2023-02-03T14:39:01.889Z,86.35
2023-02-03T14:42:04.629Z,86.63
2023-02-03T14:45:08.616Z,84.35
2023-02-03T14:47:42.800Z,86.80
2023-02-03T14:50:55.472Z,85.82
2023-02-03T14:53:29.690Z,81.88
2023-02-03T14:56:16.171Z,86.00
2023-02-03T14:58:50.895Z,84.38
2023-02-03T15:01:25.249Z,86.03
2023-02-03T15:04:11.856Z,85.22
2023-02-03T15:06:47.286Z,81.90
2023-02-03T15:09:43.127Z,85.97
2023-02-03T15:12:23.273Z,84.45
2023-02-03T15:14:51.751Z,83.45
2023-02-03T15:17:26.502Z,81.97
2023-02-03T15:19:55.057Z,84.30
2023-02-03T15:22:25.174Z,83.30
2023-02-03T15:25:04.663Z,86.38
2023-02-03T15:27:33.732Z,83.15
2023-02-03T15:30:24.541Z,83.60
2023-02-03T15:33:09.913Z,87.15
2023-02-03T15:35:40.750Z,87.55
2023-02-03T15:38:30.162Z,92.65
2023-02-03T15:40:59.334Z,89.90
2023-02-03T15:43:39.528Z,92.95
2023-02-03T15:46:19.724Z,93.28
2023-02-03T15:48:58.263Z,91.03
2023-02-03T15:51:35.412Z,93.25
2023-02-03T15:54:11.816Z,94.10
2023-02-03T15:56:44.788Z,90.20
2023-02-03T15:59:24.417Z,95.28
2023-02-03T16:01:55.887Z,89.30
2023-02-03T16:04:26.417Z,93.65
2023-02-03T16:06:57.029Z,93.25
2023-02-03T16:09:42.670Z,91.93
2023-02-03T16:12:18.700Z,91.95
2023-02-03T16:14:46.973Z,93.95
2023-02-03T16:17:29.350Z,96.60
2023-02-03T16:20:12.658Z,98.00
2023-02-03T16:22:47.240Z,100.20
2023-02-03T16:25:25.638Z,102.32
2023-02-03T16:28:20.094Z,103.90
2023-02-03T16:31:42.372Z,98.38
2023-02-03T16:34:36.024Z,107.25
2023-02-03T16:37:39.604Z,102.65
2023-02-03T16:40:26.607Z,107.30
2023-02-03T16:43:13.276Z,104.03
2023-02-03T16:46:00.754Z,101.43
2023-02-03T16:48:47.502Z,100.93
2023-02-03T16:51:17.326Z,105.68
2023-02-03T16:53:48.352Z,105.22
2023-02-03T16:56:18.655Z,102.60
2023-02-03T16:58:47.092Z,100.60
2023-02-03T17:01:15.533Z,101.75
2023-02-03T17:03:44.488Z,100.18
2023-02-03T17:06:15.192Z,100.90
2023-02-03T17:08:46.377Z,103.70
2023-02-03T17:11:20.369Z,104.70
2023-02-03T17:13:49.797Z,104.80
2023-02-03T17:16:23.839Z,99.35
2023-02-03T17:18:52.261Z,102.13
2023-02-03T17:21:25.414Z,96.80
2023-02-03T17:23:54.215Z,101.28
2023-02-03T17:26:22.493Z,101.88
2023-02-03T17:28:52.543Z,100.65
2023-02-03T17:31:21.534Z,100.82
2023-02-03T17:33:52.938Z,102.32
2023-02-03T17:36:22.705Z,106.65
2023-02-03T17:55:34.795Z,108.38
2023-02-03T17:58:03.974Z,104.75
2023-02-03T18:00:32.475Z,106.57
2023-02-03T18:03:00.946Z,108.72
2023-02-03T18:05:29.677Z,102.93
2023-02-03T18:08:00.937Z,108.85
2023-02-03T18:10:34.213Z,107.47
2023-02-03T18:13:02.723Z,108.35
2023-02-03T18:15:30.980Z,107.57
2023-02-03T18:17:59.149Z,111.75
2023-02-03T18:20:27.656Z,110.15
2023-02-03T18:22:55.918Z,109.70
2023-02-03T18:25:24.063Z,107.50
2023-02-03T18:27:54.874Z,110.18
2023-02-03T18:30:23.085Z,106.97
2023-02-03T18:32:52.696Z,112.22
2023-02-03T18:35:21.018Z,110.47
2023-02-03T18:37:52.248Z,109.60
2023-02-03T18:40:20.518Z,108.60
2023-02-03T18:42:49.083Z,111.68
2023-02-03T18:45:17.301Z,105.95
2023-02-03T18:47:45.479Z,108.43
2023-02-03T18:50:13.694Z,106.72
2023-02-03T18:52:41.934Z,108.07
2023-02-03T18:55:10.206Z,107.15
2023-02-03T18:57:38.850Z,101.97
2023-02-03T19:00:08.159Z,107.18
2023-02-03T19:02:36.522Z,109.32
2023-02-03T19:05:05.503Z,104.00
2023-02-03T19:07:33.867Z,108.35
2023-02-03T19:10:04.932Z,109.00
2023-02-03T19:12:33.227Z,109.47
2023-02-03T19:15:01.442Z,104.50
2023-02-03T19:17:29.705Z,110.70
2023-02-03T19:19:57.977Z,117.70
2023-02-03T19:22:26.171Z,114.78
2023-02-03T19:24:55.864Z,116.90
2023-02-03T19:27:24.556Z,117.28
2023-02-03T19:29:52.785Z,122.43
2023-02-03T19:32:21.128Z,112.85
2023-02-03T19:34:49.394Z,112.75
2023-02-03T19:37:17.665Z,115.25
2023-02-03T19:39:50.326Z,110.97
2023-02-03T19:42:18.722Z,111.75
2023-02-03T19:44:47.125Z,115.20
2023-02-03T19:47:18.197Z,112.38
2023-02-03T19:49:46.409Z,110.53
2023-02-03T19:52:17.387Z,112.53
2023-02-03T19:54:45.654Z,110.45
2023-02-03T19:57:13.811Z,113.15
2023-02-03T19:59:42.126Z,111.57
2023-02-03T20:02:14.344Z,111.82
2023-02-03T20:04:44.263Z,111.65
2023-02-03T20:07:13.880Z,112.90
2023-02-03T20:09:42.064Z,110.50
2023-02-03T20:12:11.136Z,111.20
2023-02-03T20:14:39.357Z,108.55
2023-02-03T20:17:07.858Z,108.70
2023-02-03T20:19:36.279Z,111.20
2023-02-03T20:22:04.678Z,109.03
2023-02-03T20:24:33.279Z,111.90
2023-02-03T20:27:01.891Z,112.88
2023-02-03T20:29:30.128Z,110.93
2023-02-03T20:31:58.785Z,110.85
2023-02-03T20:34:30.003Z,111.55
2023-02-03T20:37:00.799Z,110.38
2023-02-03T20:39:29.153Z,110.03
2023-02-03T20:41:57.369Z,113.95
2023-02-03T20:44:25.602Z,112.90
2023-02-03T20:46:55.873Z,110.97
2023-02-03T20:49:24.201Z,114.60
2023-02-03T20:51:52.426Z,112.22
2023-02-03T20:54:22.097Z,114.20
2023-02-03T20:56:50.300Z,113.45
2023-02-03T20:59:22.213Z,109.85
2023-02-03T21:01:50.816Z,115.63
2023-02-03T21:04:38.679Z,111.20
2023-02-03T21:07:18.099Z,112.70
2023-02-03T21:09:46.305Z,109.88
2023-02-03T21:12:15.069Z,114.32
2023-02-03T21:14:45.565Z,114.68
2023-02-03T21:17:26.233Z,112.75
2023-02-03T21:19:55.207Z,113.22
2023-02-03T21:22:26.529Z,113.40
2023-02-03T21:24:59.993Z,108.13
2023-02-03T21:27:34.098Z,99.90
2023-02-03T21:30:21.196Z,92.15
2023-02-03T21:32:49.328Z,89.60
2023-02-03T21:35:35.093Z,90.38
2023-02-03T21:38:25.451Z,87.38
2023-02-03T21:40:53.646Z,90.63
2023-02-03T21:43:24.692Z,86.45
2023-02-03T21:45:53.000Z,87.57
2023-02-03T21:48:39.810Z,83.88
2023-02-03T21:51:24.013Z,83.03
2023-02-03T21:53:55.570Z,83.43
2023-02-03T21:56:26.948Z,84.40
2023-02-03T21:58:58.922Z,83.30
2023-02-03T22:01:35.517Z,77.03
2023-02-03T22:04:06.575Z,80.25
2023-02-03T22:06:52.220Z,79.03
2023-02-03T22:09:27.695Z,79.05
2023-02-03T22:11:56.160Z,78.43
2023-02-03T22:14:24.388Z,80.65
2023-02-03T22:16:52.654Z,80.15
2023-02-03T22:19:21.210Z,82.28
2023-02-03T22:22:47.836Z,83.40
2023-02-03T22:26:14.944Z,93.68
2023-02-03T22:29:41.872Z,99.30
2023-02-03T22:33:08.730Z,99.28
2023-02-03T22:36:35.413Z,98.05
2023-02-03T22:40:03.545Z,80.90
2023-02-03T22:43:31.234Z,77.18
2023-02-03T22:46:58.227Z,75.97
2023-02-03T22:50:35.059Z,74.00
2023-02-03T22:54:03.359Z,83.25
2023-02-03T22:57:30.065Z,77.40
2023-02-03T23:00:57.163Z,96.45
2023-02-03T23:04:26.817Z,79.32
2023-02-03T23:07:53.922Z,82.30
2023-02-03T23:11:22.230Z,80.05
2023-02-03T23:14:51.644Z,98.35
2023-02-03T23:18:18.340Z,98.00
2023-02-03T23:21:45.074Z,96.38
2023-02-03T23:25:12.803Z,85.45
2023-02-03T23:28:40.358Z,72.95
2023-02-03T23:32:07.776Z,69.95
2023-02-03T23:35:46.698Z,71.78
2023-02-03T23:39:14.170Z,72.75
2023-02-03T23:42:40.824Z,80.07
2023-02-03T23:46:08.003Z,86.13
2023-02-03T23:49:34.704Z,85.13
2023-02-03T23:53:01.392Z,84.22
2023-02-03T23:56:28.448Z,84.00
2023-02-03T23:59:55.155Z,84.05
